Orbital elements of BREEZE-M DEB
| Launched | 27 February 2006 |
| Flight ended | – |
| Launch site | Tyuratam Missile and Space Center, Kazakhstan (Also known as Baikonur Cosmodrome) |
| Owner | Commonwealth of Independent States (former USSR) |
| NORAD ID | 32032 |
| Date fetched |
Epoch osculation |
Inc. [°] |
Ecc. | RA asc node [hr] |
Arg Peri. [°] |
Mean anom [°] |
Mean motion [rev/day] |
Abs. mag |
| Date fetched |
Epoch osculation |
Inc. [°] |
Ecc. | RA asc node [hr] |
Arg Peri. [°] |
Mean anom [°] |
Mean motion [rev/day] |
Abs. mag |
| 2026 May 04 17:57 | 2026 Apr 30 09:38:18 | 51.4857 | 0.44914 | 23.8465 | 115.8736 | 296.6864 | 6.16578 | – |
| 2026 May 03 17:57 | 2026 Apr 30 09:38:18 | 51.4857 | 0.44914 | 23.8465 | 115.8736 | 296.6864 | 6.16578 | – |
| 2026 May 02 17:57 | 2026 Apr 30 09:38:18 | 51.4857 | 0.44914 | 23.8465 | 115.8736 | 296.6864 | 6.16578 | – |
| 2026 May 01 17:56 | 2026 Apr 30 09:38:18 | 51.4857 | 0.44914 | 23.8465 | 115.8736 | 296.6864 | 6.16578 | – |
| 2026 Apr 30 17:56 | 2026 Apr 30 09:38:18 | 51.4857 | 0.44914 | 23.8465 | 115.8736 | 296.6864 | 6.16578 | – |
| 2026 Apr 29 17:57 | 2026 Apr 24 01:51:11 | 51.4820 | 0.44869 | 0.2295 | 111.5524 | 296.6864 | 6.16578 | – |
| 2026 Apr 28 17:56 | 2026 Apr 24 01:51:11 | 51.4820 | 0.44869 | 0.2295 | 111.5524 | 296.6864 | 6.16578 | – |
| 2026 Apr 27 17:58 | 2026 Apr 24 01:51:11 | 51.4820 | 0.44869 | 0.2295 | 111.5524 | 296.6864 | 6.16578 | – |
| 2026 Apr 26 17:58 | 2026 Apr 24 01:51:11 | 51.4820 | 0.44869 | 0.2295 | 111.5524 | 296.6864 | 6.16578 | – |
| 2026 Apr 25 17:58 | 2026 Apr 24 01:51:11 | 51.4820 | 0.44869 | 0.2295 | 111.5524 | 296.6864 | 6.16578 | – |
| 2026 Apr 24 17:59 | 2026 Apr 24 01:51:11 | 51.4820 | 0.44869 | 0.2295 | 111.5524 | 296.6864 | 6.16578 | – |
| 2026 Apr 23 17:57 | 2026 Apr 17 21:54:22 | 51.4766 | 0.44810 | 0.6029 | 107.3380 | 296.6864 | 6.16578 | – |
| 2026 Apr 22 17:57 | 2026 Apr 17 21:54:22 | 51.4766 | 0.44810 | 0.6029 | 107.3380 | 296.6864 | 6.16578 | – |
| 2026 Apr 21 17:57 | 2026 Apr 17 21:54:22 | 51.4766 | 0.44810 | 0.6029 | 107.3380 | 296.6864 | 6.16578 | – |
| 2026 Apr 20 17:57 | 2026 Apr 17 21:54:22 | 51.4766 | 0.44810 | 0.6029 | 107.3380 | 296.6864 | 6.16578 | – |
| 2026 Apr 19 17:58 | 2026 Apr 17 21:54:22 | 51.4766 | 0.44810 | 0.6029 | 107.3380 | 296.6864 | 6.16578 | – |
| 2026 Apr 18 17:56 | 2026 Apr 11 17:55:06 | 51.4732 | 0.44747 | 0.9751 | 103.1476 | 296.6864 | 6.16578 | – |
| 2026 Apr 16 17:57 | 2026 Apr 11 17:55:06 | 51.4732 | 0.44747 | 0.9751 | 103.1476 | 296.6864 | 6.16578 | – |
| 2026 Apr 14 17:57 | 2026 Apr 11 17:55:06 | 51.4732 | 0.44747 | 0.9751 | 103.1476 | 296.6864 | 6.16578 | – |
| 2026 Apr 13 17:57 | 2026 Apr 11 17:55:06 | 51.4732 | 0.44747 | 0.9751 | 103.1476 | 296.6864 | 6.16578 | – |
| 2026 Apr 12 17:57 | 2026 Apr 05 02:11:59 | 51.4720 | 0.44675 | 1.3759 | 98.6436 | 296.6864 | 6.16578 | – |
| 2026 Apr 11 17:57 | 2026 Apr 05 02:11:59 | 51.4720 | 0.44675 | 1.3759 | 98.6436 | 296.6864 | 6.16578 | – |
| 2026 Apr 10 17:58 | 2026 Apr 05 02:11:59 | 51.4720 | 0.44675 | 1.3759 | 98.6436 | 296.6864 | 6.16578 | – |
| 2026 Apr 09 18:01 | 2026 Apr 05 02:11:59 | 51.4720 | 0.44675 | 1.3759 | 98.6436 | 296.6864 | 6.16578 | – |
| 2026 Apr 08 17:57 | 2026 Apr 05 02:11:59 | 51.4720 | 0.44675 | 1.3759 | 98.6436 | 296.6864 | 6.16578 | – |
| 2026 Apr 07 17:57 | 2026 Apr 02 00:09:45 | 51.4750 | 0.44643 | 1.5609 | 96.5624 | 296.6864 | 6.16578 | – |